Time;durP1;ratioP1;P1;durP2;ratioP2;P2;SDS_P1;SDS_P2;PMS_P1;PMS_P2;Temp;Humidity;BMP_temperature;BMP_pressure;BME280_temperature;BME280_humidity;BME280_pressure;Samples;Min_cycle;Max_cycle;Signal;HPM_P1;HPM_P2
2021/09/08 00:00:22;;;;;;;20.40;11.30;;;;;;;13.26;77.88;99223.44;111785;1205;24079;-81
2021/09/08 00:03:04;;;;;;;19.50;12.10;;;;;;;13.26;77.95;99224.82;111760;1212;22485;-81
2021/09/08 00:05:31;;;;;;;20.30;12.00;;;;;;;13.26;78.01;99224.66;111798;1212;22737;-81
2021/09/08 00:07:58;;;;;;;18.70;11.40;;;;;;;13.24;77.81;99225.09;111942;1212;25154;-81
2021/09/08 00:10:25;;;;;;;18.60;11.40;;;;;;;13.21;77.92;99228.70;112021;1211;22575;-81
2021/09/08 00:13:06;;;;;;;17.80;11.30;;;;;;;13.20;77.94;99231.30;111848;1212;24167;-81
2021/09/08 00:15:46;;;;;;;17.40;10.80;;;;;;;13.19;78.02;99230.08;111818;1212;22467;-80
2021/09/08 00:18:13;;;;;;;17.50;11.10;;;;;;;13.18;78.11;99226.73;111771;1204;22455;-80
2021/09/08 00:20:40;;;;;;;17.80;11.10;;;;;;;13.18;78.07;99223.83;112048;1212;24132;-80
2021/09/08 00:23:07;;;;;;;17.10;12.00;;;;;;;13.18;78.06;99219.00;112179;1211;22415;-80
2021/09/08 00:25:35;;;;;;;15.40;9.70;;;;;;;13.18;78.10;99217.70;112180;1212;23084;-80
2021/09/08 00:28:03;;;;;;;18.20;11.20;;;;;;;13.16;77.81;99219.67;112067;1212;22463;-80
2021/09/08 00:30:30;;;;;;;18.40;11.40;;;;;;;13.10;77.87;99229.09;112183;1211;23768;-80
2021/09/08 00:32:57;;;;;;;17.10;11.30;;;;;;;13.04;77.79;99224.33;112244;1212;22650;-80
2021/09/08 00:35:44;;;;;;;18.80;11.80;;;;;;;13.02;77.99;99225.38;112094;1212;25149;-80
2021/09/08 00:38:12;;;;;;;18.60;10.60;;;;;;;12.99;78.20;99228.98;112203;1211;24171;-81
2021/09/08 00:40:41;;;;;;;16.70;9.80;;;;;;;12.95;78.09;99229.05;112209;1212;24193;-80
2021/09/08 00:43:24;;;;;;;18.60;10.60;;;;;;;12.91;78.26;99225.97;112135;1211;24135;-80
2021/09/08 00:45:54;;;;;;;17.30;11.50;;;;;;;12.88;78.19;99229.23;112195;1211;23043;-80
2021/09/08 00:48:21;;;;;;;;;;;;;;;12.84;78.29;99228.34;112289;1212;22506;-80
2021/09/08 00:50:52;;;;;;;20.90;11.80;;;;;;;12.82;78.59;99226.59;112433;1211;22281;-81
2021/09/08 00:53:21;;;;;;;19.50;10.90;;;;;;;12.80;78.74;99221.95;112225;1211;26321;-81
2021/09/08 00:55:50;;;;;;;15.40;10.30;;;;;;;12.79;78.83;99222.27;112121;1212;22486;-80
2021/09/08 00:58:17;;;;;;;18.40;11.20;;;;;;;12.79;78.81;99223.83;112137;1212;22498;-80
2021/09/08 01:00:44;;;;;;;22.00;12.20;;;;;;;12.76;78.54;99229.30;112154;1206;23455;-81
2021/09/08 01:03:27;;;;;;;18.70;11.60;;;;;;;12.76;79.08;99224.77;112006;1212;22510;-80
2021/09/08 01:05:54;;;;;;;17.00;11.30;;;;;;;12.76;79.12;99224.56;112165;1211;23264;-80
2021/09/08 01:08:22;;;;;;;18.70;9.80;;;;;;;12.76;79.20;99222.25;112086;1212;23733;-81
2021/09/08 01:10:51;;;;;;;18.00;11.80;;;;;;;12.76;79.09;99221.05;111985;1212;24686;-81
2021/09/08 01:13:20;;;;;;;20.40;11.70;;;;;;;12.77;79.14;99224.50;112213;1211;25066;-80
2021/09/08 01:15:58;;;;;;;21.30;12.70;;;;;;;12.74;79.19;99222.75;112288;1216;22705;-81
2021/09/08 01:18:27;;;;;;;16.30;10.80;;;;;;;12.72;79.28;99223.11;112411;1211;24207;-80
2021/09/08 01:20:54;;;;;;;18.50;10.50;;;;;;;12.71;79.18;99222.26;112168;1218;22450;-80
2021/09/08 01:23:35;;;;;;;16.50;10.70;;;;;;;12.68;79.05;99222.09;112095;1211;24032;-81
2021/09/08 01:26:04;;;;;;;17.50;11.50;;;;;;;12.68;79.18;99223.73;112403;1212;22480;-81
2021/09/08 01:28:31;;;;;;;18.50;12.40;;;;;;;12.67;79.02;99224.02;112179;1212;22473;-81
2021/09/08 01:31:12;;;;;;;19.80;11.60;;;;;;;12.67;79.23;99224.02;112100;1212;25144;-79
2021/09/08 01:33:39;;;;;;;15.60;11.00;;;;;;;12.66;79.31;99224.49;112231;1212;24053;-80
2021/09/08 01:36:08;;;;;;;;;;;;;;;12.65;79.30;99220.83;112237;1211;23553;-80
2021/09/08 01:38:37;;;;;;;20.90;12.90;;;;;;;12.65;79.56;99218.75;112311;1212;22479;-80
2021/09/08 01:41:04;;;;;;;20.90;12.10;;;;;;;12.65;79.69;99223.00;112121;1211;25040;-80
2021/09/08 01:43:31;;;;;;;18.20;11.70;;;;;;;12.64;79.78;99224.63;112164;1212;22478;-81
2021/09/08 01:46:22;;;;;;;18.00;11.20;;;;;;;12.63;79.78;99224.33;112204;1211;26292;-80
2021/09/08 01:48:52;;;;;;;20.80;11.60;;;;;;;12.64;79.86;99224.95;112362;1203;22483;-80
2021/09/08 01:51:33;;;;;;;19.70;12.40;;;;;;;12.63;79.50;99226.33;112170;1212;23465;-80
2021/09/08 01:54:00;;;;;;;16.70;12.00;;;;;;;12.56;79.42;99223.63;112223;1212;22458;-80
2021/09/08 01:56:27;;;;;;;18.00;10.90;;;;;;;12.46;79.18;99225.25;111933;1212;22456;-80
2021/09/08 01:58:53;;;;;;;19.00;10.70;;;;;;;12.40;79.30;99220.86;112112;1215;22537;-80
2021/09/08 02:01:23;;;;;;;19.00;11.70;;;;;;;12.39;79.85;99220.84;112085;1212;25172;-80
2021/09/08 02:03:49;;;;;;;;;;;;;;;12.39;79.85;99225.76;112183;1206;22457;-80
2021/09/08 02:06:20;;;;;;;23.20;12.00;;;;;;;12.38;80.15;99223.03;112038;1212;22495;-80
2021/09/08 02:08:51;;;;;;;17.20;11.60;;;;;;;12.35;80.40;99219.32;112099;1220;25060;-80
2021/09/08 02:11:19;;;;;;;19.80;12.30;;;;;;;12.32;80.40;99222.77;111959;1212;22470;-80
2021/09/08 02:14:00;;;;;;;20.30;12.50;;;;;;;12.32;80.69;99219.70;112061;1212;22484;-80
2021/09/08 02:16:27;;;;;;;19.90;11.80;;;;;;;12.33;80.74;99219.39;112233;1212;25167;-80
2021/09/08 02:19:08;;;;;;;20.10;12.20;;;;;;;12.34;80.89;99221.27;112208;1212;22464;-80
2021/09/08 02:21:35;;;;;;;18.10;11.50;;;;;;;12.32;80.83;99219.86;111903;1215;25086;-80
2021/09/08 02:24:03;;;;;;;17.80;11.40;;;;;;;12.30;80.91;99221.12;112120;1212;24170;-80
2021/09/08 02:26:44;;;;;;;18.40;11.70;;;;;;;12.31;81.03;99219.05;112203;1212;22505;-80
2021/09/08 02:29:14;;;;;;;19.40;13.10;;;;;;;12.33;81.17;99218.34;112165;1212;23661;-80
2021/09/08 02:31:41;;;;;;;24.00;13.60;;;;;;;12.35;81.24;99215.83;112157;1205;22470;-80
2021/09/08 02:34:10;;;;;;;25.50;14.20;;;;;;;12.38;81.30;99212.33;112136;1212;22543;-80
2021/09/08 02:36:38;;;;;;;23.70;12.60;;;;;;;12.40;81.41;99212.05;112173;1212;24162;-80
2021/09/08 02:39:18;;;;;;;22.20;13.00;;;;;;;12.42;81.51;99215.27;112347;1212;26309;-80
2021/09/08 02:41:51;;;;;;;23.70;13.30;;;;;;;12.44;81.41;99212.27;112022;1206;24216;-80
2021/09/08 02:44:32;;;;;;;21.30;13.80;;;;;;;12.45;81.46;99210.48;112234;1212;24143;-80
2021/09/08 02:46:59;;;;;;;22.40;12.30;;;;;;;12.47;81.25;99214.06;112119;1212;23458;-80
2021/09/08 02:49:40;;;;;;;21.30;12.70;;;;;;;12.46;81.52;99209.08;112188;1212;22457;-80
2021/09/08 02:52:07;;;;;;;19.60;12.70;;;;;;;12.46;81.43;99209.14;111858;1213;22457;-80
2021/09/08 02:54:47;;;;;;;21.80;13.20;;;;;;;12.49;81.52;99213.80;111994;1213;22466;-80
2021/09/08 02:57:18;;;;;;;23.00;14.00;;;;;;;12.51;81.33;99215.27;112171;1212;24183;-80
2021/09/08 02:59:45;;;;;;;22.30;12.90;;;;;;;12.51;81.24;99213.57;111994;1215;22457;-80
2021/09/08 03:02:12;;;;;;;20.70;13.00;;;;;;;12.50;81.23;99216.01;112198;1212;24160;-80
2021/09/08 03:04:52;;;;;;;22.90;12.80;;;;;;;12.51;81.24;99213.46;112204;1212;25079;-80
2021/09/08 03:07:19;;;;;;;26.00;14.20;;;;;;;12.50;81.21;99210.88;112024;1212;22450;-80
2021/09/08 03:09:46;;;;;;;22.50;13.30;;;;;;;12.48;81.30;99213.23;112155;1212;24113;-80
2021/09/08 03:12:13;;;;;;;23.00;12.90;;;;;;;12.45;81.16;99214.30;112022;1213;23104;-80
2021/09/08 03:14:40;;;;;;;19.70;11.80;;;;;;;12.41;81.30;99220.50;112164;1212;22470;-81
2021/09/08 03:17:07;;;;;;;22.80;12.20;;;;;;;12.38;81.19;99220.10;111965;1215;22469;-80
2021/09/08 03:19:35;;;;;;;19.50;12.80;;;;;;;12.34;81.24;99220.83;112046;1215;22981;-81
2021/09/08 03:22:02;;;;;;;21.70;12.60;;;;;;;12.32;81.17;99219.66;112000;1220;24270;-80
2021/09/08 03:24:29;;;;;;;18.80;12.30;;;;;;;12.30;81.41;99220.69;111990;1213;22735;-80
2021/09/08 03:26:56;;;;;;;17.10;11.10;;;;;;;12.30;81.38;99222.05;112108;1206;25085;-80
2021/09/08 03:29:23;;;;;;;19.50;13.60;;;;;;;12.30;81.24;99220.96;112062;1212;25043;-80
2021/09/08 03:31:50;;;;;;;19.20;12.20;;;;;;;12.28;81.66;99217.14;112192;1219;23086;-80
2021/09/08 03:34:17;;;;;;;19.40;12.30;;;;;;;12.26;81.23;99218.80;112023;1213;24134;-80
2021/09/08 03:36:43;;;;;;;18.60;12.30;;;;;;;12.24;81.33;99218.80;112045;1219;22565;-81
2021/09/08 03:39:10;;;;;;;16.90;11.20;;;;;;;12.20;81.25;99220.00;112152;1211;22465;-80
2021/09/08 03:41:37;;;;;;;17.10;9.80;;;;;;;12.12;80.44;99219.52;111970;1215;24136;-81
2021/09/08 03:44:04;;;;;;;18.00;10.30;;;;;;;12.01;79.61;99219.11;112033;1212;23284;-80
2021/09/08 03:46:31;;;;;;;13.70;8.70;;;;;;;11.81;78.79;99218.10;112177;1212;22103;-80
2021/09/08 03:48:58;;;;;;;15.50;9.70;;;;;;;11.56;78.89;99223.64;111999;1212;25043;-80
2021/09/08 03:51:25;;;;;;;17.50;10.20;;;;;;;11.32;79.21;99221.24;112212;1212;22458;-80
2021/09/08 03:53:52;;;;;;;14.90;9.30;;;;;;;11.13;79.67;99218.81;112147;1212;22453;-80
2021/09/08 03:56:33;;;;;;;18.10;10.40;;;;;;;11.07;80.85;99223.52;112231;1219;24163;-80
2021/09/08 03:59:00;;;;;;;17.90;11.80;;;;;;;11.08;81.30;99222.53;111924;1212;23780;-80
2021/09/08 04:01:27;;;;;;;20.10;13.20;;;;;;;11.09;81.84;99222.69;112018;1212;22466;-81
2021/09/08 04:03:54;;;;;;;22.40;12.20;;;;;;;11.11;82.08;99222.58;112108;1212;24100;-81
2021/09/08 04:06:35;;;;;;;19.30;11.20;;;;;;;11.15;82.63;99225.30;112248;1212;22486;-80
2021/09/08 04:09:02;;;;;;;20.90;12.70;;;;;;;11.21;82.76;99224.00;112176;1212;25153;-80
2021/09/08 04:11:29;;;;;;;20.80;11.50;;;;;;;11.29;83.14;99220.08;112126;1212;25083;-80
2021/09/08 04:13:56;;;;;;;21.40;12.60;;;;;;;11.36;83.02;99220.94;112197;1212;25122;-80
2021/09/08 04:16:23;;;;;;;22.50;12.70;;;;;;;11.44;83.32;99226.63;112130;1212;22458;-80
2021/09/08 04:18:49;;;;;;;20.00;12.70;;;;;;;11.48;83.24;99225.72;112119;1212;25142;-80
2021/09/08 04:21:31;;;;;;;22.10;11.40;;;;;;;11.52;83.01;99227.23;111887;1212;25131;-80
2021/09/08 04:23:58;;;;;;;22.00;12.50;;;;;;;11.54;83.38;99222.88;111910;1212;22463;-79
2021/09/08 04:26:25;;;;;;;24.90;13.70;;;;;;;11.57;83.08;99227.04;111871;1212;22879;-80
2021/09/08 04:28:53;;;;;;;21.60;12.90;;;;;;;11.59;83.03;99228.45;111611;1212;22460;-81
2021/09/08 04:31:20;;;;;;;18.90;12.50;;;;;;;11.58;83.03;99228.02;111687;1215;23793;-81
2021/09/08 04:33:47;;;;;;;20.40;11.40;;;;;;;11.58;82.75;99229.48;111886;1219;25292;-80
2021/09/08 04:36:14;;;;;;;20.20;12.40;;;;;;;11.60;82.90;99229.25;111711;1213;25205;-80
2021/09/08 04:38:47;;;;;;;19.20;12.10;;;;;;;11.62;83.16;99233.84;111817;1212;22559;-80
2021/09/08 04:41:14;;;;;;;23.50;13.80;;;;;;;11.66;83.22;99231.30;111850;1212;22508;-80
2021/09/08 04:43:56;;;;;;;19.00;12.20;;;;;;;11.70;83.06;99228.58;112006;1212;23309;-80
2021/09/08 04:46:23;;;;;;;18.40;11.70;;;;;;;11.75;83.18;99227.42;111770;1205;24063;-80
2021/09/08 04:48:50;;;;;;;19.60;11.50;;;;;;;11.81;83.17;99232.08;111904;1212;24049;-80
2021/09/08 04:51:17;;;;;;;24.30;13.60;;;;;;;11.85;83.03;99233.44;111823;1212;25087;-80
2021/09/08 04:53:57;;;;;;;23.50;13.90;;;;;;;11.91;83.11;99230.43;111965;1212;23050;-80
2021/09/08 04:56:39;;;;;;;23.30;12.90;;;;;;;11.98;83.18;99231.21;111806;1212;22466;-80
2021/09/08 04:59:06;;;;;;;18.90;11.90;;;;;;;12.02;83.06;99234.10;111778;1212;24093;-80
2021/09/08 05:01:33;;;;;;;23.00;13.70;;;;;;;12.07;83.17;99235.47;111935;1213;24061;-80
2021/09/08 05:04:00;;;;;;;20.10;12.80;;;;;;;12.11;83.00;99233.34;111945;1212;25125;-80
2021/09/08 05:06:27;;;;;;;22.00;13.20;;;;;;;12.18;82.98;99229.52;111775;1219;25125;-80
2021/09/08 05:09:08;;;;;;;21.30;13.00;;;;;;;12.24;83.02;99233.17;112024;1212;25195;-80
2021/09/08 05:11:49;;;;;;;22.20;12.40;;;;;;;12.26;82.56;99237.03;111824;1212;25161;-80
2021/09/08 05:14:18;;;;;;;23.80;12.40;;;;;;;12.28;82.47;99236.05;111636;1215;22601;-80
2021/09/08 05:16:45;;;;;;;24.10;14.50;;;;;;;12.30;82.64;99238.56;111883;1212;25112;-80
2021/09/08 05:19:11;;;;;;;20.70;13.30;;;;;;;12.36;82.75;99243.59;111877;1212;23780;-80
2021/09/08 05:21:38;;;;;;;21.20;13.20;;;;;;;12.38;82.42;99246.32;111953;1212;23772;-80
2021/09/08 05:24:05;;;;;;;20.20;12.90;;;;;;;12.37;82.32;99246.51;111931;1212;25124;-80
2021/09/08 05:26:32;;;;;;;21.50;11.50;;;;;;;12.34;82.26;99251.09;111863;1212;22456;-80
2021/09/08 05:29:15;;;;;;;19.20;12.00;;;;;;;12.31;82.21;99252.50;111940;1212;24312;-80
2021/09/08 05:31:42;;;;;;;21.10;13.00;;;;;;;12.32;82.56;99256.73;111825;1213;25138;-80
2021/09/08 05:34:09;;;;;;;25.90;13.80;;;;;;;12.34;82.65;99257.31;111933;1212;22466;-80
2021/09/08 05:36:36;;;;;;;28.80;13.60;;;;;;;12.34;82.79;99261.77;111646;1212;24286;-80
2021/09/08 05:39:03;;;;;;;22.90;12.00;;;;;;;12.35;82.82;99263.09;111645;1214;22576;-79
2021/09/08 05:41:30;;;;;;;20.60;11.90;;;;;;;12.39;82.69;99267.11;111917;1212;22517;-80
2021/09/08 05:43:57;;;;;;;22.20;12.30;;;;;;;12.43;83.01;99263.72;111877;1212;25046;-80
2021/09/08 05:46:24;;;;;;;22.30;16.70;;;;;;;12.52;82.99;99260.70;111992;1212;24095;-80
2021/09/08 05:48:50;;;;;;;23.40;14.50;;;;;;;12.60;83.05;99262.48;111782;1212;23055;-80
2021/09/08 05:51:17;;;;;;;23.60;12.90;;;;;;;12.65;83.01;99265.04;111740;1213;22461;-80
2021/09/08 05:53:58;;;;;;;20.40;12.00;;;;;;;12.72;83.19;99267.05;111866;1212;25063;-80
2021/09/08 05:56:25;;;;;;;19.70;12.70;;;;;;;12.81;83.33;99265.59;111568;1215;26424;-80
2021/09/08 05:59:06;;;;;;;28.20;12.80;;;;;;;12.90;83.30;99268.59;111900;1212;22475;-80
2021/09/08 06:01:33;;;;;;;21.20;13.20;;;;;;;12.97;83.20;99265.44;111878;1205;25040;-80
2021/09/08 06:03:59;;;;;;;18.30;10.70;;;;;;;13.01;83.06;99264.13;111872;1212;22438;-80
2021/09/08 06:06:26;;;;;;;20.00;12.10;;;;;;;13.05;83.30;99265.45;111861;1212;24107;-80
2021/09/08 06:08:53;;;;;;;18.30;11.70;;;;;;;13.10;83.64;99261.68;111925;1212;24097;-80
2021/09/08 06:11:20;;;;;;;22.10;11.90;;;;;;;13.19;83.65;99260.76;111850;1212;22730;-80
2021/09/08 06:13:47;;;;;;;19.80;12.50;;;;;;;13.28;83.50;99261.57;112704;1212;24287;-80
2021/09/08 06:16:14;;;;;;;22.20;11.70;;;;;;;13.38;83.59;99256.09;112471;1206;24075;-80
2021/09/08 06:18:55;;;;;;;22.80;12.90;;;;;;;13.47;83.40;99255.77;112305;1212;22490;-80
2021/09/08 06:21:22;;;;;;;20.20;12.00;;;;;;;13.52;83.26;99251.86;112248;1212;25111;-80
2021/09/08 06:23:49;;;;;;;18.30;11.50;;;;;;;13.57;83.21;99251.30;112351;1212;22470;-80
2021/09/08 06:26:16;;;;;;;20.70;11.70;;;;;;;13.65;83.05;99249.80;112307;1212;22470;-80
2021/09/08 06:28:43;;;;;;;20.80;12.30;;;;;;;13.76;83.19;99250.60;112294;1213;22489;-80
2021/09/08 06:31:10;;;;;;;18.30;12.30;;;;;;;13.88;83.12;99249.19;112153;1220;22552;-80
2021/09/08 06:33:39;;;;;;;18.40;12.10;;;;;;;14.00;83.09;99248.52;112186;1212;24102;-81
2021/09/08 06:36:06;;;;;;;19.10;12.20;;;;;;;14.13;82.90;99253.10;112200;1219;22450;-81
2021/09/08 06:38:34;;;;;;;16.00;10.30;;;;;;;14.25;82.47;99255.29;112247;1212;25042;-80
2021/09/08 06:41:02;;;;;;;19.50;11.40;;;;;;;14.36;82.03;99254.41;112148;1213;22449;-80
2021/09/08 06:43:29;;;;;;;24.60;13.10;;;;;;;14.48;81.79;99253.66;112227;1212;24063;-80
2021/09/08 06:45:56;;;;;;;21.30;12.40;;;;;;;14.57;81.33;99255.06;112231;1212;25088;-80
2021/09/08 06:48:23;;;;;;;20.00;12.60;;;;;;;14.65;81.30;99254.27;112176;1212;25139;-80
2021/09/08 06:50:50;;;;;;;18.20;12.70;;;;;;;14.73;80.87;99256.62;112226;1212;22455;-80
2021/09/08 06:53:17;;;;;;;17.50;11.10;;;;;;;14.81;80.88;99254.77;112454;1212;22466;-80
2021/09/08 06:55:44;;;;;;;18.00;11.30;;;;;;;14.90;80.51;99257.13;112207;1213;22456;-80
2021/09/08 06:58:11;;;;;;;17.40;11.90;;;;;;;15.00;80.51;99258.47;112199;1212;22926;-80
2021/09/08 07:00:38;;;;;;;18.30;12.20;;;;;;;15.10;80.38;99260.96;112379;1213;23749;-80
2021/09/08 07:03:06;;;;;;;23.60;12.80;;;;;;;15.20;79.96;99259.28;112224;1212;22576;-80
2021/09/08 07:05:47;;;;;;;23.70;12.20;;;;;;;15.32;79.67;99261.12;112440;1211;22463;-78
2021/09/08 07:08:15;;;;;;;21.40;12.30;;;;;;;15.42;79.73;99258.42;111990;1213;25083;-80
2021/09/08 07:10:43;;;;;;;18.30;11.80;;;;;;;15.52;78.92;99260.96;112416;1212;24130;-80
2021/09/08 07:13:23;;;;;;;20.20;12.50;;;;;;;15.62;78.65;99257.88;112296;1219;23775;-78
2021/09/08 07:15:50;;;;;;;27.40;13.60;;;;;;;15.71;78.56;99253.77;112079;1212;22517;-78
2021/09/08 07:18:17;;;;;;;30.40;13.80;;;;;;;15.80;78.46;99255.08;111944;1212;24077;-78
2021/09/08 07:20:44;;;;;;;27.50;12.40;;;;;;;15.88;78.16;99257.71;111996;1212;22613;-80
2021/09/08 07:23:11;;;;;;;26.60;13.50;;;;;;;15.96;78.30;99261.10;112335;1212;22470;-78
2021/09/08 07:25:52;;;;;;;21.20;12.50;;;;;;;16.06;77.86;99261.20;111947;1212;22469;-80
2021/09/08 07:28:19;;;;;;;26.70;13.70;;;;;;;16.17;77.76;99262.34;112007;1217;22727;-81
2021/09/08 07:30:46;;;;;;;21.40;12.50;;;;;;;16.26;77.47;99261.70;111927;1213;22587;-81
2021/09/08 07:33:13;;;;;;;24.20;13.50;;;;;;;16.36;77.09;99264.14;112363;1212;22459;-80
2021/09/08 07:35:40;;;;;;;20.40;13.70;;;;;;;16.43;76.73;99264.18;112199;1215;24041;-81
2021/09/08 07:38:07;;;;;;;28.20;13.50;;;;;;;16.50;76.72;99264.06;112180;1212;22472;-78
2021/09/08 07:40:34;;;;;;;18.10;11.30;;;;;;;16.58;76.12;99265.17;112036;1213;25046;-78
2021/09/08 07:43:01;;;;;;;22.80;12.80;;;;;;;16.67;75.50;99267.82;112009;1212;24166;-80
2021/09/08 07:45:27;;;;;;;21.80;12.60;;;;;;;16.76;75.46;99270.73;112346;1212;22462;-79
2021/09/08 07:47:54;;;;;;;25.20;12.60;;;;;;;16.85;75.24;99267.95;112025;1211;22477;-79
2021/09/08 07:50:35;;;;;;;22.20;13.50;;;;;;;16.96;74.96;99269.45;112006;1219;25138;-79
2021/09/08 07:53:04;;;;;;;27.10;13.70;;;;;;;17.05;74.80;99268.39;112152;1214;25141;-79
2021/09/08 07:55:45;;;;;;;19.80;12.40;;;;;;;17.17;74.27;99271.69;112129;1213;25415;-79
2021/09/08 07:58:26;;;;;;;24.20;13.20;;;;;;;17.29;73.87;99266.17;112093;1212;22738;-80
2021/09/08 08:01:06;;;;;;;21.80;12.00;;;;;;;17.41;73.43;99269.31;111992;1215;26410;-79
2021/09/08 08:03:33;;;;;;;20.30;12.60;;;;;;;17.50;73.33;99271.05;112121;1211;25147;-79
2021/09/08 08:06:00;;;;;;;22.40;11.50;;;;;;;17.60;72.82;99270.04;112138;1212;22483;-79
2021/09/08 08:08:41;;;;;;;20.00;11.60;;;;;;;17.73;72.60;99274.03;112037;1213;22788;-79
2021/09/08 08:11:08;;;;;;;14.10;11.00;;;;;;;17.83;72.14;99269.21;111921;1219;26009;-79
2021/09/08 08:13:35;;;;;;;18.30;11.80;;;;;;;17.94;71.26;99272.67;111913;1213;22482;-80
2021/09/08 08:16:16;;;;;;;18.60;11.40;;;;;;;18.06;70.75;99275.55;112144;1212;22720;-79
2021/09/08 08:18:56;;;;;;;20.30;11.10;;;;;;;18.19;70.19;99273.68;111925;1212;24192;-80
2021/09/08 08:21:23;;;;;;;19.30;11.10;;;;;;;18.32;70.14;99269.77;112115;1216;22577;-80
2021/09/08 08:24:04;;;;;;;23.90;11.60;;;;;;;18.46;69.95;99273.06;112079;1216;24121;-80
2021/09/08 08:26:45;;;;;;;21.00;11.00;;;;;;;18.60;69.20;99271.34;112074;1214;23807;-80
2021/09/08 08:29:12;;;;;;;18.80;11.50;;;;;;;18.72;69.10;99271.21;112223;1216;22459;-80
2021/09/08 08:31:39;;;;;;;18.40;10.60;;;;;;;18.87;68.82;99273.02;111976;1213;22462;-80
2021/09/08 08:34:06;;;;;;;15.80;10.00;;;;;;;19.01;68.40;99270.86;112101;1212;22459;-80
2021/09/08 08:36:46;;;;;;;16.30;9.90;;;;;;;19.13;67.26;99269.54;112103;1219;22699;-79
2021/09/08 08:39:27;;;;;;;17.30;9.60;;;;;;;19.27;66.93;99270.48;112172;1213;24148;-80
2021/09/08 08:41:54;;;;;;;18.20;9.40;;;;;;;19.37;65.95;99268.06;112055;1216;22467;-80
2021/09/08 08:44:26;;;;;;;16.30;9.50;;;;;;;19.49;65.66;99267.12;111990;1213;22502;-80
2021/09/08 08:47:07;;;;;;;13.40;8.60;;;;;;;19.61;64.72;99264.58;111931;1216;25264;-80
2021/09/08 08:49:34;;;;;;;12.00;8.70;;;;;;;19.70;64.53;99261.31;112030;1220;24058;-80
2021/09/08 08:52:00;;;;;;;11.40;8.40;;;;;;;19.81;64.56;99261.94;111923;1213;25043;-80
2021/09/08 08:54:27;;;;;;;13.70;8.30;;;;;;;19.91;64.73;99259.61;112026;1213;22500;-82
2021/09/08 08:56:54;;;;;;;14.10;9.40;;;;;;;20.01;64.56;99258.92;111867;1216;22462;-80
2021/09/08 08:59:37;;;;;;;11.20;7.90;;;;;;;20.15;63.18;99259.59;111991;1213;25669;-78
2021/09/08 09:02:28;;;;;;;10.70;7.70;;;;;;;20.24;62.27;99257.25;111568;1219;22467;-79
2021/09/08 09:04:58;;;;;;;12.50;8.20;;;;;;;20.35;61.50;99255.79;111993;1212;22441;-77
2021/09/08 09:07:26;;;;;;;12.00;7.80;;;;;;;20.48;61.96;99256.44;111849;1214;23270;-78
2021/09/08 09:09:58;;;;;;;13.80;8.70;;;;;;;20.60;62.00;99252.73;111961;1213;22446;-78
2021/09/08 09:12:32;;;;;;;10.10;7.50;;;;;;;20.72;61.78;99252.80;112041;1216;22461;-78
2021/09/08 09:15:03;;;;;;;13.70;7.40;;;;;;;20.83;60.41;99253.52;111907;1219;22463;-78
2021/09/08 09:17:32;;;;;;;10.40;8.10;;;;;;;20.95;60.25;99258.27;111986;1219;22474;-78
2021/09/08 09:20:07;;;;;;;9.90;7.10;;;;;;;21.07;59.17;99257.25;112144;1213;22465;-78
2021/09/08 09:22:45;;;;;;;10.30;7.70;;;;;;;21.20;58.54;99253.33;112005;1219;25179;-78
2021/09/08 09:25:15;;;;;;;11.00;7.80;;;;;;;21.33;58.94;99252.37;112371;1213;22643;-78
2021/09/08 09:27:49;;;;;;;12.00;7.10;;;;;;;21.48;59.49;99250.54;112224;1216;22484;-78
2021/09/08 09:30:19;;;;;;;11.60;7.50;;;;;;;21.63;58.37;99245.13;112079;1214;22482;-77
2021/09/08 09:32:49;;;;;;;13.30;7.50;;;;;;;21.77;58.19;99247.32;111996;1216;25087;-77
2021/09/08 09:35:19;;;;;;;10.70;6.90;;;;;;;21.89;57.69;99244.36;111855;1215;24159;-77
2021/09/08 09:37:56;;;;;;;13.40;8.00;;;;;;;22.02;57.29;99244.84;111853;1214;22789;-77
2021/09/08 09:40:31;;;;;;;12.50;7.20;;;;;;;22.12;56.14;99238.34;112046;1212;22568;-77
2021/09/08 09:43:07;;;;;;;12.50;7.30;;;;;;;22.24;55.78;99232.45;111878;1213;25226;-77
2021/09/08 09:45:40;;;;;;;12.70;8.20;;;;;;;22.35;55.21;99229.55;111885;1212;22597;-77
2021/09/08 09:48:10;;;;;;;11.60;7.00;;;;;;;22.47;54.84;99227.13;111986;1212;22456;-77
2021/09/08 09:50:38;;;;;;;10.50;7.30;;;;;;;22.57;54.18;99223.11;112108;1212;22527;-77
2021/09/08 09:53:05;;;;;;;13.60;7.30;;;;;;;22.66;53.28;99217.77;111784;1212;25199;-77
2021/09/08 09:55:32;;;;;;;10.00;7.20;;;;;;;22.75;53.01;99220.65;112014;1216;25388;-77
2021/09/08 09:58:16;;;;;;;9.60;7.40;;;;;;;22.84;51.81;99216.05;111974;1213;22599;-77
2021/09/08 10:00:43;;;;;;;11.80;7.50;;;;;;;22.91;51.79;99217.13;112082;1210;22657;-77
2021/09/08 10:03:11;;;;;;;13.30;7.40;;;;;;;23.01;51.87;99213.00;112023;1213;23254;-77
2021/09/08 10:05:52;;;;;;;11.40;7.00;;;;;;;23.14;51.70;99214.26;111758;1213;25138;-77
2021/09/08 10:08:22;;;;;;;8.10;6.70;;;;;;;23.26;52.70;99214.39;111910;1213;24063;-77
2021/09/08 10:10:52;;;;;;;11.10;7.30;;;;;;;23.39;51.85;99212.28;111976;1216;25241;-77
2021/09/08 10:13:28;;;;;;;9.10;6.80;;;;;;;23.49;50.15;99211.16;112184;1212;25043;-77
2021/09/08 10:15:55;;;;;;;8.70;6.70;;;;;;;23.59;51.51;99211.42;111995;1214;22563;-77
2021/09/08 10:18:28;;;;;;;8.10;6.60;;;;;;;23.69;50.72;99205.54;111963;1216;22448;-76
2021/09/08 10:21:07;;;;;;;9.20;7.00;;;;;;;23.82;49.81;99209.65;112053;1219;23100;-76
2021/09/08 10:23:45;;;;;;;8.70;6.10;;;;;;;23.91;50.44;99202.60;112001;1213;22562;-76
2021/09/08 10:26:16;;;;;;;10.40;6.70;;;;;;;24.02;49.65;99199.61;111901;1219;22468;-77
2021/09/08 10:28:44;;;;;;;28.00;7.40;;;;;;;24.10;48.32;99199.57;111950;1212;22704;-77
2021/09/08 10:31:25;;;;;;;10.50;7.20;;;;;;;24.20;48.89;99196.02;111775;1219;25215;-76
2021/09/08 10:33:56;;;;;;;9.30;6.10;;;;;;;24.31;47.78;99195.94;111731;1213;22460;-76
2021/09/08 10:36:23;;;;;;;9.40;6.40;;;;;;;24.40;47.18;99194.45;111933;1215;22868;-77
2021/09/08 10:39:07;;;;;;;8.60;5.90;;;;;;;24.51;46.14;99191.63;111909;1216;23881;-77
2021/09/08 10:41:41;;;;;;;7.30;6.10;;;;;;;24.60;45.35;99190.48;111871;1212;22508;-77
2021/09/08 10:44:08;;;;;;;7.10;5.90;;;;;;;24.69;45.13;99183.09;112068;1216;22460;-77
2021/09/08 10:46:56;;;;;;;7.30;6.10;;;;;;;24.77;44.50;99180.96;112083;1216;22471;-76
2021/09/08 10:49:36;;;;;;;8.00;6.20;;;;;;;24.85;44.13;99184.13;111921;1219;22856;-77
2021/09/08 10:52:08;;;;;;;9.00;6.40;;;;;;;24.89;44.68;99180.84;112130;1216;25159;-77
2021/09/08 10:54:54;;;;;;;9.00;6.50;;;;;;;24.97;44.61;99180.77;111825;1219;22593;-77
2021/09/08 10:57:49;;;;;;;9.60;6.80;;;;;;;25.05;43.53;99180.65;112102;1213;23101;-77
2021/09/08 11:00:26;;;;;;;7.80;6.20;;;;;;;25.12;43.57;99181.23;112089;1213;22461;-76
2021/09/08 11:02:53;;;;;;;8.70;6.70;;;;;;;25.18;43.42;99178.20;111685;1214;22936;-77
2021/09/08 11:05:20;;;;;;;12.00;6.40;;;;;;;25.21;42.93;99179.11;111929;1214;22552;-77
2021/09/08 11:07:49;;;;;;;9.20;6.50;;;;;;;25.23;42.59;99174.21;112005;1216;24266;-76
2021/09/08 11:10:34;;;;;;;8.20;7.00;;;;;;;25.30;43.73;99173.28;111591;1214;22594;-77
2021/09/08 11:13:02;;;;;;;8.90;6.90;;;;;;;25.42;43.12;99171.45;111866;1212;23000;-77
2021/09/08 11:15:40;;;;;;;8.00;6.40;;;;;;;25.51;42.83;99171.95;111907;1216;22581;-77
2021/09/08 11:18:12;;;;;;;10.60;6.50;;;;;;;25.59;42.10;99168.44;111705;1214;22633;-77
2021/09/08 11:20:41;;;;;;;14.10;7.00;;;;;;;25.67;41.84;99165.18;111663;1220;23117;-76
2021/09/08 11:23:13;;;;;;;10.30;7.20;;;;;;;25.76;41.68;99162.48;112165;1216;22478;-76
2021/09/08 11:25:43;;;;;;;8.90;6.50;;;;;;;25.80;40.64;99161.08;111918;1214;22580;-76
2021/09/08 11:28:12;;;;;;;10.30;6.60;;;;;;;25.85;40.85;99156.04;112125;1219;23938;-77